createdAt,value
2022-12-23T00:00:14.094Z,100170.28
2022-12-23T00:03:16.731Z,100188.13
2022-12-23T00:06:20.515Z,100176.09
2022-12-23T00:09:23.006Z,100163.31
2022-12-23T00:12:43.778Z,100142.16
2022-12-23T00:15:46.109Z,100159.16
2022-12-23T00:18:48.558Z,100165.97
2022-12-23T00:21:50.908Z,100136.41
2022-12-23T00:24:53.316Z,100171.94
2022-12-23T00:28:01.550Z,100142.31
2022-12-23T00:31:06.837Z,100162.63
2022-12-23T00:34:11.032Z,100163.44
2022-12-23T00:37:13.482Z,100171.94
2022-12-23T00:40:35.049Z,100131.22
2022-12-23T00:43:37.477Z,100126.94
2022-12-23T00:46:39.881Z,100155.69
2022-12-23T00:49:42.589Z,100159.94
2022-12-23T00:52:44.945Z,100160.72
2022-12-23T00:55:47.912Z,100158.28
2022-12-23T00:58:50.380Z,100150.72
2022-12-23T01:02:12.287Z,100155.63
2022-12-23T01:05:33.351Z,100160.75
2022-12-23T01:08:35.721Z,100152.09
2022-12-23T01:11:38.246Z,100133.56
2022-12-23T01:14:40.919Z,100161.59
2022-12-23T01:17:43.298Z,100155.44
2022-12-23T01:20:46.985Z,100154.63
2022-12-23T01:23:49.348Z,100141.94
2022-12-23T01:26:51.712Z,100137.03
2022-12-23T01:29:54.111Z,100108.75
2022-12-23T01:32:56.557Z,100081.63
2022-12-23T01:36:07.561Z,100119.09
2022-12-23T01:39:10.061Z,100100.56
2022-12-23T01:42:37.226Z,100089.53
2022-12-23T01:45:39.692Z,100098.00
2022-12-23T01:48:45.129Z,100107.31
2022-12-23T01:51:47.799Z,100109.81
2022-12-23T01:54:50.513Z,100112.44
2022-12-23T01:57:56.625Z,100153.03
2022-12-23T02:01:18.414Z,100124.16
2022-12-23T02:04:23.968Z,100143.56
2022-12-23T02:07:46.225Z,100140.97
2022-12-23T02:11:00.852Z,100120.81
2022-12-23T02:14:50.184Z,100157.06
2022-12-23T02:18:16.463Z,100138.50
2022-12-23T02:21:43.367Z,100159.47
2022-12-23T02:25:06.965Z,100155.31
2022-12-23T02:28:25.853Z,100161.34
2022-12-23T02:32:00.223Z,100144.16
2022-12-23T02:35:21.108Z,100133.78
2022-12-23T02:38:29.954Z,100128.88
2022-12-23T02:41:35.091Z,100135.91
2022-12-23T02:45:10.169Z,100113.78
2022-12-23T02:48:22.410Z,100126.50
2022-12-23T02:51:31.021Z,100117.88
2022-12-23T02:54:40.845Z,100058.38
2022-12-23T02:57:48.392Z,100090.44
2022-12-23T03:00:51.456Z,100081.88
2022-12-23T03:03:53.955Z,100104.66
2022-12-23T03:07:01.673Z,100110.78
2022-12-23T03:10:26.190Z,100121.72
2022-12-23T03:13:47.310Z,100093.00
2022-12-23T03:17:04.717Z,100121.59
2022-12-23T03:20:26.381Z,100114.91
2022-12-23T03:23:55.688Z,100115.72
2022-12-23T03:27:06.929Z,100102.09
2022-12-23T03:30:14.572Z,100106.13
2022-12-23T03:33:26.960Z,100124.97
2022-12-23T03:36:38.360Z,100110.44
2022-12-23T03:39:49.632Z,100114.00
2022-12-23T03:43:01.185Z,100108.06
2022-12-23T03:46:10.810Z,100112.47
2022-12-23T03:49:22.921Z,100082.81
2022-12-23T03:52:33.314Z,100110.69
2022-12-23T03:55:48.296Z,100108.09
2022-12-23T03:59:00.684Z,100101.34
2022-12-23T04:02:42.460Z,100103.94
2022-12-23T04:05:52.569Z,100086.28
2022-12-23T04:08:56.987Z,100089.91
2022-12-23T04:12:00.549Z,100091.66
2022-12-23T04:15:07.451Z,100122.19
2022-12-23T04:18:13.240Z,100120.41
2022-12-23T04:21:15.802Z,100116.06
2022-12-23T04:24:18.221Z,100079.59
2022-12-23T04:27:20.703Z,100104.22
2022-12-23T04:30:28.050Z,100096.38
2022-12-23T04:33:35.901Z,100068.41
2022-12-23T04:36:38.297Z,100087.78
2022-12-23T04:39:40.749Z,100083.53
2022-12-23T04:42:43.137Z,100048.78
2022-12-23T04:45:50.201Z,100079.97
2022-12-23T04:48:52.642Z,100075.56
2022-12-23T04:51:55.189Z,100061.81
2022-12-23T04:54:57.662Z,100027.97
2022-12-23T04:58:00.030Z,100034.91
2022-12-23T05:01:03.373Z,100078.06
2022-12-23T05:04:05.787Z,100069.50
2022-12-23T05:07:08.132Z,100057.94
2022-12-23T05:10:10.911Z,100097.03
2022-12-23T05:13:13.687Z,100070.06
2022-12-23T05:16:16.114Z,100074.44
2022-12-23T05:19:18.475Z,100096.34
2022-12-23T05:22:20.867Z,100067.66
2022-12-23T05:25:23.199Z,100067.59
2022-12-23T05:28:25.666Z,100054.19
2022-12-23T05:31:28.294Z,100089.78
2022-12-23T05:34:30.709Z,100079.41
2022-12-23T05:37:33.146Z,100069.34
2022-12-23T05:40:37.701Z,100082.91
2022-12-23T05:43:40.368Z,100038.06
2022-12-23T05:46:42.825Z,100081.25
2022-12-23T05:49:45.457Z,100075.53
2022-12-23T05:52:47.818Z,100092.34
2022-12-23T05:55:50.538Z,100067.53
2022-12-23T05:58:52.965Z,100076.91
2022-12-23T06:01:55.477Z,100088.69
2022-12-23T06:04:58.148Z,100071.81
2022-12-23T06:08:00.532Z,100062.41
2022-12-23T06:11:06.883Z,100089.47
2022-12-23T06:14:10.293Z,100065.16
2022-12-23T06:17:12.682Z,100073.56
2022-12-23T06:20:20.446Z,100096.34
2022-12-23T06:23:23.389Z,100106.69
2022-12-23T06:26:26.416Z,100084.59
2022-12-23T06:29:29.322Z,100112.56
2022-12-23T06:32:37.887Z,100121.69
2022-12-23T06:35:41.099Z,100091.31
2022-12-23T06:38:43.477Z,100127.81
2022-12-23T06:41:46.244Z,100110.78
2022-12-23T06:44:48.719Z,100118.38
2022-12-23T06:47:51.125Z,100118.59
2022-12-23T06:50:55.433Z,100117.75
2022-12-23T06:54:00.017Z,100129.28
2022-12-23T06:57:02.405Z,100101.34
2022-12-23T07:00:05.651Z,100113.31
2022-12-23T07:03:08.555Z,100098.78
2022-12-23T07:06:11.555Z,100131.88
2022-12-23T07:09:13.964Z,100116.50
2022-12-23T07:12:16.503Z,100129.97
2022-12-23T07:15:18.916Z,100127.97
2022-12-23T07:18:25.211Z,100149.84
2022-12-23T07:21:29.726Z,100125.22
2022-12-23T07:24:32.398Z,100133.41
2022-12-23T07:27:34.798Z,100142.81
2022-12-23T07:30:38.676Z,100146.94
2022-12-23T07:33:41.201Z,100120.16
2022-12-23T07:36:43.537Z,100152.81
2022-12-23T07:39:45.988Z,100133.75
2022-12-23T07:42:49.995Z,100180.44
2022-12-23T07:45:59.150Z,100148.16
2022-12-23T07:49:02.719Z,100142.09
2022-12-23T07:52:05.224Z,100180.28
2022-12-23T07:55:08.018Z,100178.59
2022-12-23T07:58:10.404Z,100179.28
2022-12-23T08:01:12.960Z,100177.44
2022-12-23T08:04:15.334Z,100180.41
2022-12-23T08:07:17.710Z,100182.03
2022-12-23T08:10:20.045Z,100182.44
2022-12-23T08:13:22.433Z,100148.50
2022-12-23T08:16:24.804Z,100147.38
2022-12-23T08:19:27.197Z,100105.00
2022-12-23T08:22:31.907Z,100160.09
2022-12-23T08:25:34.340Z,100134.66
2022-12-23T08:28:37.576Z,100133.97
2022-12-23T08:31:40.111Z,100143.03
2022-12-23T08:34:42.569Z,100129.34
2022-12-23T08:37:44.899Z,100137.41
2022-12-23T08:40:47.702Z,100128.53
2022-12-23T08:43:51.337Z,100140.66
2022-12-23T08:46:54.925Z,100143.53
2022-12-23T08:49:57.357Z,100138.09
2022-12-23T08:52:59.922Z,100149.06
2022-12-23T08:56:05.805Z,100149.09
2022-12-23T08:59:18.681Z,100115.78
2022-12-23T09:02:22.306Z,100143.75
2022-12-23T09:05:25.022Z,100145.38
2022-12-23T09:08:27.352Z,100130.97
2022-12-23T09:11:30.096Z,100146.84
2022-12-23T09:14:32.567Z,100145.31
2022-12-23T09:17:35.288Z,100108.63
2022-12-23T09:20:38.855Z,100113.16
2022-12-23T09:23:41.731Z,100120.72
2022-12-23T09:26:44.065Z,100128.53
2022-12-23T09:29:46.485Z,100129.16
2022-12-23T09:32:49.154Z,100130.22
2022-12-23T09:35:51.531Z,100132.66
2022-12-23T09:38:55.808Z,100118.25
2022-12-23T09:42:28.300Z,100141.81
2022-12-23T09:45:58.088Z,100134.19
2022-12-23T09:49:09.235Z,100120.03
2022-12-23T09:52:16.343Z,100093.88
2022-12-23T09:55:20.722Z,100110.28
2022-12-23T09:58:51.997Z,100125.47
2022-12-23T10:02:22.374Z,100107.72
2022-12-23T10:05:27.655Z,100118.72
2022-12-23T10:08:41.857Z,100076.25
2022-12-23T10:11:46.956Z,100099.16
2022-12-23T10:14:52.631Z,100076.06
2022-12-23T10:18:01.651Z,100067.72
2022-12-23T10:21:14.574Z,100078.25
2022-12-23T10:24:22.535Z,100084.25
2022-12-23T10:27:42.451Z,100074.31
2022-12-23T10:31:23.833Z,100064.13
2022-12-23T10:34:22.678Z,100061.38
2022-12-23T10:37:31.717Z,100073.19
2022-12-23T10:41:08.804Z,100067.38
2022-12-23T10:44:25.062Z,100045.28
2022-12-23T10:47:35.886Z,100040.75
2022-12-23T10:50:47.339Z,100033.34
2022-12-23T10:53:55.978Z,100029.66
2022-12-23T10:56:58.703Z,100019.53
2022-12-23T11:00:01.538Z,99982.16
2022-12-23T11:03:16.853Z,99979.22
2022-12-23T11:06:19.532Z,99997.28
2022-12-23T11:09:25.082Z,99985.63
2022-12-23T11:12:52.269Z,99981.00
2022-12-23T11:15:55.743Z,99971.44
2022-12-23T11:19:02.135Z,99972.72
2022-12-23T11:22:04.610Z,99945.59
2022-12-23T11:25:27.587Z,99969.78
2022-12-23T11:28:32.603Z,99924.22
2022-12-23T11:31:36.588Z,99939.47
2022-12-23T11:34:39.243Z,99931.69
2022-12-23T11:37:43.055Z,99933.38
2022-12-23T11:40:47.031Z,99899.44
2022-12-23T11:43:57.627Z,99937.41
2022-12-23T11:47:20.358Z,99944.44
2022-12-23T11:50:31.188Z,99927.88
2022-12-23T11:53:35.016Z,99923.03
2022-12-23T11:56:40.500Z,99939.22
2022-12-23T11:59:48.961Z,99950.44
2022-12-23T12:03:03.638Z,99946.59
2022-12-23T12:06:07.021Z,99960.09
2022-12-23T12:09:13.112Z,99962.56
2022-12-23T12:12:19.431Z,99961.69
2022-12-23T12:15:48.154Z,99947.38
2022-12-23T12:18:55.624Z,99941.44
2022-12-23T12:22:05.187Z,99977.03
2022-12-23T12:25:19.097Z,99976.88
2022-12-23T12:28:25.966Z,99968.41
2022-12-23T12:31:37.166Z,99953.44
2022-12-23T12:35:03.611Z,99958.22
2022-12-23T12:38:27.674Z,99954.19
2022-12-23T12:41:38.392Z,99997.16
2022-12-23T12:44:52.177Z,99988.47
2022-12-23T12:48:28.211Z,99971.94
2022-12-23T12:51:49.686Z,99941.31
2022-12-23T12:55:32.895Z,99988.75
2022-12-23T12:58:35.350Z,99988.81
2022-12-23T13:01:44.739Z,99991.84
2022-12-23T13:04:52.838Z,100003.28
2022-12-23T13:08:07.230Z,99996.47
2022-12-23T13:11:28.128Z,99980.59
2022-12-23T13:14:49.224Z,99984.81
2022-12-23T13:18:06.269Z,99963.91
2022-12-23T13:21:17.308Z,99987.25
2022-12-23T13:24:34.317Z,99950.22
2022-12-23T13:27:54.767Z,99968.50
2022-12-23T13:31:10.338Z,99930.72
2022-12-23T13:34:24.947Z,99964.44
2022-12-23T13:37:45.768Z,99965.91
2022-12-23T13:41:22.880Z,99948.50
2022-12-23T13:44:25.923Z,99954.69
2022-12-23T13:47:48.630Z,99961.13
2022-12-23T13:51:00.301Z,99981.31
2022-12-23T13:54:21.998Z,99978.63
2022-12-23T13:57:41.036Z,99947.72
2022-12-23T14:00:45.310Z,99946.81
2022-12-23T14:03:50.754Z,99951.59
2022-12-23T14:06:55.860Z,99966.00
2022-12-23T14:10:09.472Z,99995.50
2022-12-23T14:13:17.253Z,99994.59
2022-12-23T14:16:31.541Z,99996.00
2022-12-23T14:19:33.851Z,99983.03
2022-12-23T14:23:04.123Z,99970.13
2022-12-23T14:26:21.428Z,99969.88
2022-12-23T14:29:45.694Z,99976.84
2022-12-23T14:32:50.562Z,99958.09
2022-12-23T14:35:56.892Z,99956.63
2022-12-23T14:39:11.150Z,99993.84
2022-12-23T14:42:16.930Z,99991.97
2022-12-23T14:45:41.610Z,99997.03
2022-12-23T14:48:44.457Z,100006.00
2022-12-23T14:51:50.780Z,99973.97
2022-12-23T14:55:20.981Z,100003.72
2022-12-23T14:58:18.661Z,100013.03
2022-12-23T15:01:38.745Z,100004.41
2022-12-23T15:04:55.043Z,100006.84
2022-12-23T15:07:57.526Z,100004.31
2022-12-23T15:11:00.249Z,99963.72
2022-12-23T15:14:07.852Z,99972.38
2022-12-23T15:17:25.047Z,99974.06
2022-12-23T15:20:27.546Z,99996.88
2022-12-23T15:23:30.441Z,100014.25
2022-12-23T15:26:33.219Z,99994.34
2022-12-23T15:29:35.833Z,99978.19
2022-12-23T15:32:43.091Z,99959.66
2022-12-23T15:35:46.030Z,99959.88
2022-12-23T15:38:48.521Z,100000.03
2022-12-23T15:41:50.893Z,100003.91
2022-12-23T15:44:53.782Z,99993.47
2022-12-23T15:47:56.170Z,99982.22
2022-12-23T15:51:04.308Z,99956.59
2022-12-23T15:54:08.550Z,99978.75
2022-12-23T15:57:20.630Z,99983.22
2022-12-23T16:00:41.024Z,99992.63
2022-12-23T16:03:50.451Z,99927.97
2022-12-23T16:06:53.644Z,99971.53
2022-12-23T16:09:56.202Z,99973.28
2022-12-23T16:12:59.069Z,99971.63
2022-12-23T16:16:38.583Z,100002.94
2022-12-23T16:19:44.668Z,99996.00
2022-12-23T16:22:50.476Z,99970.72
2022-12-23T16:25:53.435Z,99971.31
2022-12-23T16:29:00.838Z,99962.66
2022-12-23T16:32:03.339Z,99994.53
2022-12-23T16:35:12.396Z,99995.59
2022-12-23T16:38:23.738Z,99993.00
2022-12-23T16:41:26.451Z,99981.88
2022-12-23T16:44:28.963Z,99965.75
2022-12-23T16:47:31.391Z,99991.72
2022-12-23T16:50:37.322Z,99994.53
2022-12-23T16:53:39.773Z,99963.22
2022-12-23T16:56:43.093Z,99966.34
2022-12-23T16:59:46.942Z,99968.75
2022-12-23T17:02:49.683Z,99987.34
2022-12-23T17:05:52.101Z,99966.81
2022-12-23T17:08:56.946Z,99961.94
2022-12-23T17:11:59.338Z,99951.88
2022-12-23T17:15:01.667Z,99973.69
2022-12-23T17:18:04.178Z,99979.63
2022-12-23T17:21:16.965Z,99982.31
2022-12-23T17:24:23.792Z,99953.50
2022-12-23T17:27:26.296Z,99940.34
2022-12-23T17:30:30.967Z,99972.78
2022-12-23T17:33:33.742Z,99965.13
2022-12-23T17:36:36.259Z,99938.78
2022-12-23T17:39:39.467Z,99967.50
2022-12-23T17:42:42.927Z,99959.19
2022-12-23T17:45:45.833Z,99978.66
2022-12-23T17:48:49.035Z,99945.59
2022-12-23T17:51:51.448Z,99967.13
2022-12-23T17:54:53.878Z,99967.28
2022-12-23T17:57:56.326Z,99962.06
2022-12-23T18:00:59.028Z,99941.28
2022-12-23T18:04:01.524Z,99941.94
2022-12-23T18:07:03.914Z,99970.50
2022-12-23T18:10:07.174Z,99947.34
2022-12-23T18:13:17.104Z,99935.28
2022-12-23T18:16:19.548Z,99941.28
2022-12-23T18:19:22.247Z,99956.25
2022-12-23T18:22:27.007Z,99964.19
2022-12-23T18:25:29.394Z,99959.56
2022-12-23T18:28:31.947Z,99957.50
2022-12-23T18:31:36.025Z,99937.66
2022-12-23T18:34:38.343Z,99954.34
2022-12-23T18:37:40.697Z,99960.25
2022-12-23T18:40:44.656Z,99961.25
2022-12-23T18:43:47.221Z,99960.56
2022-12-23T18:46:50.394Z,99968.69
2022-12-23T18:49:52.950Z,99940.13
2022-12-23T18:52:56.276Z,99964.03
2022-12-23T18:55:58.632Z,99982.78
2022-12-23T18:59:01.032Z,99982.16
2022-12-23T19:02:03.980Z,99983.88
2022-12-23T19:05:07.442Z,99960.44
2022-12-23T19:08:10.163Z,99992.75
2022-12-23T19:11:20.560Z,99970.56
2022-12-23T19:14:23.318Z,99987.97
2022-12-23T19:17:25.698Z,99960.56
2022-12-23T19:20:29.153Z,99987.22
2022-12-23T19:23:31.930Z,99991.25
2022-12-23T19:26:34.285Z,99978.66
2022-12-23T19:29:37.256Z,99976.28
2022-12-23T19:32:40.439Z,99976.59
2022-12-23T19:35:44.397Z,99981.00
2022-12-23T19:38:47.466Z,99977.59
2022-12-23T19:41:50.258Z,99999.66
2022-12-23T19:44:52.769Z,100003.97
2022-12-23T19:47:55.262Z,99984.63
2022-12-23T19:50:58.401Z,100015.00
2022-12-23T19:54:00.750Z,99984.34
2022-12-23T19:57:03.354Z,100016.84
2022-12-23T20:00:06.739Z,99997.41
2022-12-23T20:03:14.918Z,99980.94
2022-12-23T20:06:20.610Z,99985.72
2022-12-23T20:09:23.188Z,100011.88
2022-12-23T20:12:27.454Z,100000.13
2022-12-23T20:15:29.839Z,100013.41
2022-12-23T20:18:32.390Z,100031.44
2022-12-23T20:21:37.287Z,100034.13
2022-12-23T20:24:39.688Z,100014.47
2022-12-23T20:27:42.190Z,100014.63
2022-12-23T20:30:48.405Z,100004.66
2022-12-23T20:33:52.146Z,99999.50
2022-12-23T20:36:54.778Z,99999.50
2022-12-23T20:39:57.280Z,99975.50
2022-12-23T20:42:59.640Z,99969.03
2022-12-23T20:46:03.343Z,100011.47
2022-12-23T20:49:05.881Z,100020.88
2022-12-23T20:52:08.346Z,99999.66
2022-12-23T20:55:10.708Z,99944.47
2022-12-23T20:58:32.039Z,99937.84
2022-12-23T21:01:37.902Z,99994.03
2022-12-23T21:04:40.537Z,99979.13
2022-12-23T21:07:42.948Z,99978.19
2022-12-23T21:10:53.491Z,100008.63
2022-12-23T21:14:01.157Z,99970.97
2022-12-23T21:17:06.525Z,99976.44
2022-12-23T21:20:09.314Z,100002.38
2022-12-23T21:23:13.563Z,99974.69
2022-12-23T21:26:18.701Z,99966.06
2022-12-23T21:29:21.748Z,99984.56
2022-12-23T21:32:24.341Z,99966.91
2022-12-23T21:35:26.750Z,99950.78
2022-12-23T21:38:34.208Z,99982.16
2022-12-23T21:41:41.216Z,99977.78
2022-12-23T21:44:43.634Z,99964.22
2022-12-23T21:47:45.989Z,99947.94
2022-12-23T21:50:54.033Z,99973.75
2022-12-23T21:53:58.539Z,99927.72
2022-12-23T21:57:00.891Z,99940.03
2022-12-23T22:00:03.974Z,99965.16
2022-12-23T22:03:07.037Z,99956.78
2022-12-23T22:06:13.981Z,99947.09
2022-12-23T22:09:19.642Z,99971.69
2022-12-23T22:12:22.253Z,99975.41
2022-12-23T22:15:24.641Z,99930.47
2022-12-23T22:18:27.016Z,99921.91
2022-12-23T22:21:31.885Z,99944.84
2022-12-23T22:24:34.238Z,99931.31
2022-12-23T22:27:36.745Z,99895.53
2022-12-23T22:30:39.453Z,99937.66
2022-12-23T22:33:42.053Z,99925.78
2022-12-23T22:36:44.624Z,99918.00
2022-12-23T22:39:47.193Z,99938.38
2022-12-23T22:42:49.758Z,99935.34
2022-12-23T22:45:57.239Z,99935.34
2022-12-23T22:48:59.993Z,99933.34
2022-12-23T22:52:02.623Z,99954.72
2022-12-23T22:55:06.174Z,99962.25
2022-12-23T22:58:08.540Z,99971.38
2022-12-23T23:01:27.031Z,99930.47
2022-12-23T23:04:29.441Z,99948.19
2022-12-23T23:07:31.881Z,99946.97
2022-12-23T23:10:35.688Z,99952.06
2022-12-23T23:13:38.278Z,99956.13
2022-12-23T23:16:40.784Z,99942.75
2022-12-23T23:19:43.309Z,99958.56
2022-12-23T23:22:45.717Z,99921.97
2022-12-23T23:25:48.310Z,99924.44
2022-12-23T23:28:50.696Z,99902.06
2022-12-23T23:31:53.167Z,99922.63
2022-12-23T23:34:55.664Z,99905.00
2022-12-23T23:37:58.244Z,99918.41
2022-12-23T23:41:01.673Z,99917.97
2022-12-23T23:44:04.340Z,99902.22
2022-12-23T23:47:06.677Z,99909.13
2022-12-23T23:50:09.483Z,99909.00
2022-12-23T23:53:13.991Z,99877.72
2022-12-23T23:56:21.944Z,99889.28
2022-12-23T23:59:27.341Z,99864.94
